sensor_id;sensor_type;location;lat;lon;timestamp;temperature;humidity
23114;DHT22;11726;50.122;8.832;2023-04-08T00:01:03;8.00;99.90
23114;DHT22;11726;50.122;8.832;2023-04-08T00:03:30;7.80;99.90
23114;DHT22;11726;50.122;8.832;2023-04-08T00:05:58;7.90;99.90
23114;DHT22;11726;50.122;8.832;2023-04-08T00:08:31;7.90;99.90
23114;DHT22;11726;50.122;8.832;2023-04-08T00:10:58;7.80;99.90
23114;DHT22;11726;50.122;8.832;2023-04-08T00:13:25;7.80;99.90
23114;DHT22;11726;50.122;8.832;2023-04-08T00:15:52;7.80;99.90
23114;DHT22;11726;50.122;8.832;2023-04-08T00:18:18;7.70;99.90
23114;DHT22;11726;50.122;8.832;2023-04-08T00:20:45;7.60;99.90
23114;DHT22;11726;50.122;8.832;2023-04-08T00:23:12;7.60;99.90
23114;DHT22;11726;50.122;8.832;2023-04-08T00:25:39;7.60;99.90
23114;DHT22;11726;50.122;8.832;2023-04-08T00:28:06;7.50;99.90
23114;DHT22;11726;50.122;8.832;2023-04-08T00:30:32;7.50;99.90
23114;DHT22;11726;50.122;8.832;2023-04-08T00:32:59;7.40;99.90
23114;DHT22;11726;50.122;8.832;2023-04-08T00:35:27;7.40;99.90
23114;DHT22;11726;50.122;8.832;2023-04-08T00:37:54;7.40;99.90
23114;DHT22;11726;50.122;8.832;2023-04-08T00:40:20;7.40;99.90
23114;DHT22;11726;50.122;8.832;2023-04-08T00:42:47;7.40;99.90
23114;DHT22;11726;50.122;8.832;2023-04-08T00:45:14;7.30;99.90
23114;DHT22;11726;50.122;8.832;2023-04-08T00:47:41;7.10;99.90
23114;DHT22;11726;50.122;8.832;2023-04-08T00:50:08;7.00;99.90
23114;DHT22;11726;50.122;8.832;2023-04-08T00:52:38;7.10;99.90
23114;DHT22;11726;50.122;8.832;2023-04-08T00:55:05;7.20;99.90
23114;DHT22;11726;50.122;8.832;2023-04-08T00:57:32;7.20;99.90
23114;DHT22;11726;50.122;8.832;2023-04-08T00:59:59;7.10;99.90
23114;DHT22;11726;50.122;8.832;2023-04-08T01:02:34;7.10;99.90
23114;DHT22;11726;50.122;8.832;2023-04-08T01:05:06;7.10;99.90
23114;DHT22;11726;50.122;8.832;2023-04-08T01:07:38;6.90;99.90
23114;DHT22;11726;50.122;8.832;2023-04-08T01:12:48;6.70;99.90
23114;DHT22;11726;50.122;8.832;2023-04-08T01:15:16;6.70;99.90
23114;DHT22;11726;50.122;8.832;2023-04-08T01:17:43;6.70;99.90
23114;DHT22;11726;50.122;8.832;2023-04-08T01:20:13;6.70;99.90
23114;DHT22;11726;50.122;8.832;2023-04-08T01:25:37;6.70;99.90
23114;DHT22;11726;50.122;8.832;2023-04-08T01:28:14;6.60;99.90
23114;DHT22;11726;50.122;8.832;2023-04-08T01:30:42;6.50;99.90
23114;DHT22;11726;50.122;8.832;2023-04-08T01:33:12;6.60;99.90
23114;DHT22;11726;50.122;8.832;2023-04-08T01:35:40;6.50;99.90
23114;DHT22;11726;50.122;8.832;2023-04-08T01:38:10;6.60;99.90
23114;DHT22;11726;50.122;8.832;2023-04-08T01:40:42;6.50;99.90
23114;DHT22;11726;50.122;8.832;2023-04-08T01:43:13;6.50;99.90
23114;DHT22;11726;50.122;8.832;2023-04-08T01:45:44;6.50;99.90
23114;DHT22;11726;50.122;8.832;2023-04-08T01:48:13;6.40;99.90
23114;DHT22;11726;50.122;8.832;2023-04-08T01:50:43;6.40;99.90
23114;DHT22;11726;50.122;8.832;2023-04-08T01:53:10;6.30;99.90
23114;DHT22;11726;50.122;8.832;2023-04-08T01:55:39;6.20;99.90
23114;DHT22;11726;50.122;8.832;2023-04-08T01:58:09;6.20;99.90
23114;DHT22;11726;50.122;8.832;2023-04-08T02:00:38;6.30;99.90
23114;DHT22;11726;50.122;8.832;2023-04-08T02:03:07;6.30;99.90
23114;DHT22;11726;50.122;8.832;2023-04-08T02:05:39;6.20;99.90
23114;DHT22;11726;50.122;8.832;2023-04-08T02:08:05;6.20;99.90
23114;DHT22;11726;50.122;8.832;2023-04-08T02:10:33;6.10;99.90
23114;DHT22;11726;50.122;8.832;2023-04-08T02:13:01;6.10;99.90
23114;DHT22;11726;50.122;8.832;2023-04-08T02:15:33;6.10;99.90
23114;DHT22;11726;50.122;8.832;2023-04-08T02:18:10;6.10;99.90
23114;DHT22;11726;50.122;8.832;2023-04-08T02:20:43;6.10;99.90
23114;DHT22;11726;50.122;8.832;2023-04-08T02:23:15;6.00;99.90
23114;DHT22;11726;50.122;8.832;2023-04-08T02:25:46;6.00;99.90
23114;DHT22;11726;50.122;8.832;2023-04-08T02:28:14;6.00;99.90
23114;DHT22;11726;50.122;8.832;2023-04-08T02:30:45;5.90;99.90
23114;DHT22;11726;50.122;8.832;2023-04-08T02:33:14;6.00;99.90
23114;DHT22;11726;50.122;8.832;2023-04-08T02:35:43;6.00;99.90
23114;DHT22;11726;50.122;8.832;2023-04-08T02:38:13;5.90;99.90
23114;DHT22;11726;50.122;8.832;2023-04-08T02:40:41;5.80;99.90
23114;DHT22;11726;50.122;8.832;2023-04-08T02:43:08;5.80;99.90
23114;DHT22;11726;50.122;8.832;2023-04-08T02:45:38;5.80;99.90
23114;DHT22;11726;50.122;8.832;2023-04-08T02:48:06;5.80;99.90
23114;DHT22;11726;50.122;8.832;2023-04-08T02:50:33;5.80;99.90
23114;DHT22;11726;50.122;8.832;2023-04-08T02:52:59;5.70;99.90
23114;DHT22;11726;50.122;8.832;2023-04-08T02:55:26;5.70;99.90
23114;DHT22;11726;50.122;8.832;2023-04-08T02:57:53;5.80;99.90
23114;DHT22;11726;50.122;8.832;2023-04-08T03:00:20;5.70;99.90
23114;DHT22;11726;50.122;8.832;2023-04-08T03:02:46;5.70;99.90
23114;DHT22;11726;50.122;8.832;2023-04-08T03:05:13;5.60;99.90
23114;DHT22;11726;50.122;8.832;2023-04-08T03:07:42;5.50;99.90
23114;DHT22;11726;50.122;8.832;2023-04-08T03:10:09;5.60;99.90
23114;DHT22;11726;50.122;8.832;2023-04-08T03:12:35;5.50;99.90
23114;DHT22;11726;50.122;8.832;2023-04-08T03:15:02;5.50;99.90
23114;DHT22;11726;50.122;8.832;2023-04-08T03:17:29;5.40;99.90
23114;DHT22;11726;50.122;8.832;2023-04-08T03:20:00;5.40;99.90
23114;DHT22;11726;50.122;8.832;2023-04-08T03:22:26;5.40;99.90
23114;DHT22;11726;50.122;8.832;2023-04-08T03:24:53;5.40;99.90
23114;DHT22;11726;50.122;8.832;2023-04-08T03:27:20;5.40;99.90
23114;DHT22;11726;50.122;8.832;2023-04-08T03:29:46;5.20;99.90
23114;DHT22;11726;50.122;8.832;2023-04-08T03:32:13;5.40;99.90
23114;DHT22;11726;50.122;8.832;2023-04-08T03:34:40;5.20;99.90
23114;DHT22;11726;50.122;8.832;2023-04-08T03:37:07;5.30;99.90
23114;DHT22;11726;50.122;8.832;2023-04-08T03:39:34;5.30;99.90
23114;DHT22;11726;50.122;8.832;2023-04-08T03:42:01;5.30;99.90
23114;DHT22;11726;50.122;8.832;2023-04-08T03:44:28;5.20;99.90
23114;DHT22;11726;50.122;8.832;2023-04-08T03:46:55;5.20;99.90
23114;DHT22;11726;50.122;8.832;2023-04-08T03:49:22;5.20;99.90
23114;DHT22;11726;50.122;8.832;2023-04-08T03:51:50;5.20;99.90
23114;DHT22;11726;50.122;8.832;2023-04-08T03:54:16;5.10;99.90
23114;DHT22;11726;50.122;8.832;2023-04-08T03:56:43;5.10;99.90
23114;DHT22;11726;50.122;8.832;2023-04-08T03:59:10;5.00;99.90
23114;DHT22;11726;50.122;8.832;2023-04-08T04:01:36;4.90;99.90
23114;DHT22;11726;50.122;8.832;2023-04-08T04:04:05;4.90;99.90
23114;DHT22;11726;50.122;8.832;2023-04-08T04:06:32;4.90;99.90
23114;DHT22;11726;50.122;8.832;2023-04-08T04:08:59;4.90;99.90
23114;DHT22;11726;50.122;8.832;2023-04-08T04:11:26;4.80;99.90
23114;DHT22;11726;50.122;8.832;2023-04-08T04:13:52;4.70;99.90
23114;DHT22;11726;50.122;8.832;2023-04-08T04:16:22;4.60;99.90
23114;DHT22;11726;50.122;8.832;2023-04-08T04:18:48;4.70;99.90
23114;DHT22;11726;50.122;8.832;2023-04-08T04:21:16;4.70;99.90
23114;DHT22;11726;50.122;8.832;2023-04-08T04:23:42;4.70;99.90
23114;DHT22;11726;50.122;8.832;2023-04-08T04:26:10;4.50;99.90
23114;DHT22;11726;50.122;8.832;2023-04-08T04:28:37;4.50;99.90
23114;DHT22;11726;50.122;8.832;2023-04-08T04:31:04;4.60;99.90
23114;DHT22;11726;50.122;8.832;2023-04-08T04:33:31;4.50;99.90
23114;DHT22;11726;50.122;8.832;2023-04-08T04:35:57;4.50;99.90
23114;DHT22;11726;50.122;8.832;2023-04-08T04:38:24;4.50;99.90
23114;DHT22;11726;50.122;8.832;2023-04-08T04:40:51;4.40;99.90
23114;DHT22;11726;50.122;8.832;2023-04-08T04:43:17;4.40;99.90
23114;DHT22;11726;50.122;8.832;2023-04-08T04:45:44;4.30;99.90
23114;DHT22;11726;50.122;8.832;2023-04-08T04:48:11;4.50;99.90
23114;DHT22;11726;50.122;8.832;2023-04-08T04:50:37;4.40;99.90
23114;DHT22;11726;50.122;8.832;2023-04-08T04:53:07;4.40;99.90
23114;DHT22;11726;50.122;8.832;2023-04-08T04:55:33;4.30;99.90
23114;DHT22;11726;50.122;8.832;2023-04-08T04:58:03;4.30;99.90
23114;DHT22;11726;50.122;8.832;2023-04-08T05:00:29;4.30;99.90
23114;DHT22;11726;50.122;8.832;2023-04-08T05:02:56;4.20;99.90
23114;DHT22;11726;50.122;8.832;2023-04-08T05:05:23;4.20;99.90
23114;DHT22;11726;50.122;8.832;2023-04-08T05:07:50;4.10;99.90
23114;DHT22;11726;50.122;8.832;2023-04-08T05:10:16;4.10;99.90
23114;DHT22;11726;50.122;8.832;2023-04-08T05:12:43;4.10;99.90
23114;DHT22;11726;50.122;8.832;2023-04-08T05:15:10;4.00;99.90
23114;DHT22;11726;50.122;8.832;2023-04-08T05:17:36;3.90;99.90
23114;DHT22;11726;50.122;8.832;2023-04-08T05:20:03;3.90;99.90
23114;DHT22;11726;50.122;8.832;2023-04-08T05:22:30;3.90;99.90
23114;DHT22;11726;50.122;8.832;2023-04-08T05:24:57;3.80;99.90
23114;DHT22;11726;50.122;8.832;2023-04-08T05:27:24;3.80;99.90
23114;DHT22;11726;50.122;8.832;2023-04-08T05:29:51;3.90;99.90
23114;DHT22;11726;50.122;8.832;2023-04-08T05:32:17;3.90;99.90
23114;DHT22;11726;50.122;8.832;2023-04-08T05:34:44;3.90;99.90
23114;DHT22;11726;50.122;8.832;2023-04-08T05:37:11;3.90;99.90
23114;DHT22;11726;50.122;8.832;2023-04-08T05:39:38;4.00;99.90
23114;DHT22;11726;50.122;8.832;2023-04-08T05:42:04;4.00;99.90
23114;DHT22;11726;50.122;8.832;2023-04-08T05:44:31;4.10;99.90
23114;DHT22;11726;50.122;8.832;2023-04-08T05:46:58;4.10;99.90
23114;DHT22;11726;50.122;8.832;2023-04-08T05:49:26;4.20;99.90
23114;DHT22;11726;50.122;8.832;2023-04-08T05:51:52;4.20;99.90
23114;DHT22;11726;50.122;8.832;2023-04-08T05:54:19;4.10;99.90
23114;DHT22;11726;50.122;8.832;2023-04-08T05:56:47;4.30;99.90
23114;DHT22;11726;50.122;8.832;2023-04-08T05:59:14;4.20;99.90
23114;DHT22;11726;50.122;8.832;2023-04-08T06:01:42;4.40;99.90
23114;DHT22;11726;50.122;8.832;2023-04-08T06:04:09;4.50;99.90
23114;DHT22;11726;50.122;8.832;2023-04-08T06:06:39;4.40;99.90
23114;DHT22;11726;50.122;8.832;2023-04-08T06:09:06;4.50;99.90
23114;DHT22;11726;50.122;8.832;2023-04-08T06:11:32;4.60;99.90
23114;DHT22;11726;50.122;8.832;2023-04-08T06:13:59;4.50;99.90
23114;DHT22;11726;50.122;8.832;2023-04-08T06:16:26;4.60;99.90
23114;DHT22;11726;50.122;8.832;2023-04-08T06:18:53;4.70;99.90
23114;DHT22;11726;50.122;8.832;2023-04-08T06:21:20;4.70;99.90
23114;DHT22;11726;50.122;8.832;2023-04-08T06:23:47;4.80;99.90
23114;DHT22;11726;50.122;8.832;2023-04-08T06:26:13;4.80;99.90
23114;DHT22;11726;50.122;8.832;2023-04-08T06:28:58;4.90;99.90
23114;DHT22;11726;50.122;8.832;2023-04-08T06:31:28;4.90;99.90
23114;DHT22;11726;50.122;8.832;2023-04-08T06:33:55;5.00;99.90
23114;DHT22;11726;50.122;8.832;2023-04-08T06:36:22;5.10;99.90
23114;DHT22;11726;50.122;8.832;2023-04-08T06:38:48;5.00;99.90
23114;DHT22;11726;50.122;8.832;2023-04-08T06:41:16;5.10;99.90
23114;DHT22;11726;50.122;8.832;2023-04-08T06:43:44;5.30;99.90
23114;DHT22;11726;50.122;8.832;2023-04-08T06:46:11;5.30;99.90
23114;DHT22;11726;50.122;8.832;2023-04-08T06:48:38;5.40;99.90
23114;DHT22;11726;50.122;8.832;2023-04-08T06:51:05;5.40;99.90
23114;DHT22;11726;50.122;8.832;2023-04-08T06:53:33;5.40;99.90
23114;DHT22;11726;50.122;8.832;2023-04-08T06:56:00;5.50;99.90
23114;DHT22;11726;50.122;8.832;2023-04-08T06:58:27;5.70;99.90
23114;DHT22;11726;50.122;8.832;2023-04-08T07:00:55;5.70;99.90
23114;DHT22;11726;50.122;8.832;2023-04-08T07:03:22;5.90;99.90
23114;DHT22;11726;50.122;8.832;2023-04-08T07:05:52;5.90;99.90
23114;DHT22;11726;50.122;8.832;2023-04-08T07:08:18;6.00;99.90
23114;DHT22;11726;50.122;8.832;2023-04-08T07:10:45;6.10;99.90
23114;DHT22;11726;50.122;8.832;2023-04-08T07:13:12;6.20;99.90
23114;DHT22;11726;50.122;8.832;2023-04-08T07:15:44;6.30;99.90
23114;DHT22;11726;50.122;8.832;2023-04-08T07:18:11;6.40;99.90
23114;DHT22;11726;50.122;8.832;2023-04-08T07:20:39;6.40;99.90
23114;DHT22;11726;50.122;8.832;2023-04-08T07:23:06;6.40;99.90
23114;DHT22;11726;50.122;8.832;2023-04-08T07:25:33;6.40;99.90
23114;DHT22;11726;50.122;8.832;2023-04-08T07:28:03;6.60;99.90
23114;DHT22;11726;50.122;8.832;2023-04-08T07:30:29;6.80;99.90
23114;DHT22;11726;50.122;8.832;2023-04-08T07:32:56;6.90;99.90
23114;DHT22;11726;50.122;8.832;2023-04-08T07:35:27;6.80;99.90
23114;DHT22;11726;50.122;8.832;2023-04-08T07:37:55;6.90;99.90
23114;DHT22;11726;50.122;8.832;2023-04-08T07:40:25;6.90;99.90
23114;DHT22;11726;50.122;8.832;2023-04-08T07:42:52;7.00;99.90
23114;DHT22;11726;50.122;8.832;2023-04-08T07:45:19;7.20;99.90
23114;DHT22;11726;50.122;8.832;2023-04-08T07:47:45;7.20;99.90
23114;DHT22;11726;50.122;8.832;2023-04-08T07:50:13;7.30;99.90
23114;DHT22;11726;50.122;8.832;2023-04-08T07:52:41;7.40;99.90
23114;DHT22;11726;50.122;8.832;2023-04-08T07:55:08;7.50;99.90
23114;DHT22;11726;50.122;8.832;2023-04-08T07:57:35;7.50;99.90
23114;DHT22;11726;50.122;8.832;2023-04-08T08:00:02;7.60;99.90
23114;DHT22;11726;50.122;8.832;2023-04-08T08:02:33;7.70;99.90
23114;DHT22;11726;50.122;8.832;2023-04-08T08:05:00;7.70;99.90
23114;DHT22;11726;50.122;8.832;2023-04-08T08:07:38;7.70;99.90
23114;DHT22;11726;50.122;8.832;2023-04-08T08:10:05;7.80;99.90
23114;DHT22;11726;50.122;8.832;2023-04-08T08:12:32;7.80;99.90
23114;DHT22;11726;50.122;8.832;2023-04-08T08:14:58;7.90;99.90
23114;DHT22;11726;50.122;8.832;2023-04-08T08:17:26;7.90;99.90
23114;DHT22;11726;50.122;8.832;2023-04-08T08:19:55;8.00;99.90
23114;DHT22;11726;50.122;8.832;2023-04-08T08:22:22;8.10;99.90
23114;DHT22;11726;50.122;8.832;2023-04-08T08:24:54;8.10;99.90
23114;DHT22;11726;50.122;8.832;2023-04-08T08:27:22;8.10;99.90
23114;DHT22;11726;50.122;8.832;2023-04-08T08:29:48;8.00;99.90
23114;DHT22;11726;50.122;8.832;2023-04-08T08:32:15;8.00;99.90
23114;DHT22;11726;50.122;8.832;2023-04-08T08:34:45;8.20;99.90
23114;DHT22;11726;50.122;8.832;2023-04-08T08:37:15;8.20;99.90
23114;DHT22;11726;50.122;8.832;2023-04-08T08:39:42;8.20;99.90
23114;DHT22;11726;50.122;8.832;2023-04-08T08:42:22;8.20;99.90
23114;DHT22;11726;50.122;8.832;2023-04-08T08:44:49;8.10;99.90
23114;DHT22;11726;50.122;8.832;2023-04-08T08:47:17;8.10;99.90
23114;DHT22;11726;50.122;8.832;2023-04-08T08:49:44;8.30;99.90
23114;DHT22;11726;50.122;8.832;2023-04-08T08:52:15;8.40;99.90
23114;DHT22;11726;50.122;8.832;2023-04-08T08:54:43;8.40;99.90
23114;DHT22;11726;50.122;8.832;2023-04-08T08:57:19;8.30;99.90
23114;DHT22;11726;50.122;8.832;2023-04-08T08:59:46;8.30;99.90
23114;DHT22;11726;50.122;8.832;2023-04-08T09:02:29;8.30;99.90
23114;DHT22;11726;50.122;8.832;2023-04-08T09:05:02;8.20;99.90
23114;DHT22;11726;50.122;8.832;2023-04-08T09:07:34;8.40;99.90
23114;DHT22;11726;50.122;8.832;2023-04-08T09:10:02;8.50;99.90
23114;DHT22;11726;50.122;8.832;2023-04-08T09:12:29;8.60;99.90
23114;DHT22;11726;50.122;8.832;2023-04-08T09:15:08;8.80;99.90
23114;DHT22;11726;50.122;8.832;2023-04-08T09:17:36;8.90;99.90
23114;DHT22;11726;50.122;8.832;2023-04-08T09:20:11;9.00;99.90
23114;DHT22;11726;50.122;8.832;2023-04-08T09:22:57;9.20;99.90
23114;DHT22;11726;50.122;8.832;2023-04-08T09:25:29;9.30;99.90
23114;DHT22;11726;50.122;8.832;2023-04-08T09:27:58;9.30;99.90
23114;DHT22;11726;50.122;8.832;2023-04-08T09:30:26;9.50;99.90
23114;DHT22;11726;50.122;8.832;2023-04-08T09:32:55;9.60;99.90
23114;DHT22;11726;50.122;8.832;2023-04-08T09:35:23;9.80;99.90
23114;DHT22;11726;50.122;8.832;2023-04-08T09:37:51;9.80;99.90
23114;DHT22;11726;50.122;8.832;2023-04-08T09:40:18;9.80;99.90
23114;DHT22;11726;50.122;8.832;2023-04-08T09:42:47;9.70;99.90
23114;DHT22;11726;50.122;8.832;2023-04-08T09:45:17;9.60;99.90
23114;DHT22;11726;50.122;8.832;2023-04-08T09:47:55;9.60;99.90
23114;DHT22;11726;50.122;8.832;2023-04-08T09:50:31;9.50;99.90
23114;DHT22;11726;50.122;8.832;2023-04-08T09:53:13;9.40;99.90
23114;DHT22;11726;50.122;8.832;2023-04-08T09:55:48;9.40;99.90
23114;DHT22;11726;50.122;8.832;2023-04-08T09:58:20;9.40;99.90
23114;DHT22;11726;50.122;8.832;2023-04-08T10:00:51;9.40;99.90
23114;DHT22;11726;50.122;8.832;2023-04-08T10:03:39;9.50;99.90
23114;DHT22;11726;50.122;8.832;2023-04-08T10:06:10;9.60;99.90
23114;DHT22;11726;50.122;8.832;2023-04-08T10:08:37;9.60;99.90
23114;DHT22;11726;50.122;8.832;2023-04-08T10:11:04;9.70;99.90
23114;DHT22;11726;50.122;8.832;2023-04-08T10:13:32;9.80;99.90
23114;DHT22;11726;50.122;8.832;2023-04-08T10:16:23;9.70;99.90
23114;DHT22;11726;50.122;8.832;2023-04-08T10:18:52;10.00;99.90
23114;DHT22;11726;50.122;8.832;2023-04-08T10:23:59;10.20;99.90
23114;DHT22;11726;50.122;8.832;2023-04-08T10:31:48;10.50;99.90
23114;DHT22;11726;50.122;8.832;2023-04-08T10:34:23;10.70;99.90
23114;DHT22;11726;50.122;8.832;2023-04-08T10:36:53;11.00;99.90
23114;DHT22;11726;50.122;8.832;2023-04-08T10:39:21;10.90;99.90
23114;DHT22;11726;50.122;8.832;2023-04-08T10:41:49;11.10;99.90
23114;DHT22;11726;50.122;8.832;2023-04-08T10:44:21;11.30;99.90
23114;DHT22;11726;50.122;8.832;2023-04-08T10:46:50;11.20;99.90
23114;DHT22;11726;50.122;8.832;2023-04-08T10:49:18;11.10;99.90
23114;DHT22;11726;50.122;8.832;2023-04-08T10:51:45;11.10;99.90
23114;DHT22;11726;50.122;8.832;2023-04-08T10:54:17;11.00;99.90
23114;DHT22;11726;50.122;8.832;2023-04-08T10:56:48;11.10;99.90
23114;DHT22;11726;50.122;8.832;2023-04-08T10:59:25;11.20;99.90
23114;DHT22;11726;50.122;8.832;2023-04-08T11:01:52;11.40;99.90
23114;DHT22;11726;50.122;8.832;2023-04-08T11:04:19;11.20;99.90
23114;DHT22;11726;50.122;8.832;2023-04-08T11:06:46;11.30;99.90
23114;DHT22;11726;50.122;8.832;2023-04-08T11:09:15;11.20;99.90
23114;DHT22;11726;50.122;8.832;2023-04-08T11:11:45;11.40;99.90
23114;DHT22;11726;50.122;8.832;2023-04-08T11:14:12;11.50;99.90
23114;DHT22;11726;50.122;8.832;2023-04-08T11:16:39;11.40;99.90
23114;DHT22;11726;50.122;8.832;2023-04-08T11:19:07;11.30;99.90
23114;DHT22;11726;50.122;8.832;2023-04-08T11:21:36;11.50;99.90
23114;DHT22;11726;50.122;8.832;2023-04-08T11:24:10;11.40;99.90
23114;DHT22;11726;50.122;8.832;2023-04-08T11:26:41;11.70;99.90
23114;DHT22;11726;50.122;8.832;2023-04-08T11:29:10;11.80;99.90
23114;DHT22;11726;50.122;8.832;2023-04-08T11:31:41;12.00;99.90
23114;DHT22;11726;50.122;8.832;2023-04-08T11:34:09;11.80;99.90
23114;DHT22;11726;50.122;8.832;2023-04-08T11:36:36;11.40;99.90
23114;DHT22;11726;50.122;8.832;2023-04-08T11:39:06;11.40;99.90
23114;DHT22;11726;50.122;8.832;2023-04-08T11:41:38;11.50;99.90
23114;DHT22;11726;50.122;8.832;2023-04-08T11:44:06;11.60;99.90
23114;DHT22;11726;50.122;8.832;2023-04-08T11:46:33;11.80;99.90
23114;DHT22;11726;50.122;8.832;2023-04-08T11:51:29;11.90;99.90
23114;DHT22;11726;50.122;8.832;2023-04-08T11:53:56;12.10;99.90
23114;DHT22;11726;50.122;8.832;2023-04-08T11:56:25;12.40;99.90
23114;DHT22;11726;50.122;8.832;2023-04-08T11:58:52;12.60;99.90
23114;DHT22;11726;50.122;8.832;2023-04-08T12:01:19;12.50;99.90
23114;DHT22;11726;50.122;8.832;2023-04-08T12:03:57;12.40;99.90
23114;DHT22;11726;50.122;8.832;2023-04-08T12:06:25;12.20;99.90
23114;DHT22;11726;50.122;8.832;2023-04-08T12:08:54;12.20;99.90
23114;DHT22;11726;50.122;8.832;2023-04-08T12:11:21;12.00;99.90
23114;DHT22;11726;50.122;8.832;2023-04-08T12:13:48;12.00;99.90
23114;DHT22;11726;50.122;8.832;2023-04-08T12:16:16;12.10;99.90
23114;DHT22;11726;50.122;8.832;2023-04-08T12:18:43;12.10;99.90
23114;DHT22;11726;50.122;8.832;2023-04-08T12:21:10;12.20;99.90
23114;DHT22;11726;50.122;8.832;2023-04-08T12:23:37;12.10;99.90
23114;DHT22;11726;50.122;8.832;2023-04-08T12:26:04;11.90;99.90
23114;DHT22;11726;50.122;8.832;2023-04-08T12:28:37;11.60;99.90
23114;DHT22;11726;50.122;8.832;2023-04-08T12:31:04;11.70;99.90
23114;DHT22;11726;50.122;8.832;2023-04-08T12:33:31;11.90;99.90
23114;DHT22;11726;50.122;8.832;2023-04-08T12:35:57;12.00;99.90
23114;DHT22;11726;50.122;8.832;2023-04-08T12:38:25;12.60;99.90
23114;DHT22;11726;50.122;8.832;2023-04-08T12:40:55;12.60;99.90
23114;DHT22;11726;50.122;8.832;2023-04-08T12:43:22;12.60;99.90
23114;DHT22;11726;50.122;8.832;2023-04-08T12:45:52;12.80;99.90
23114;DHT22;11726;50.122;8.832;2023-04-08T12:48:20;12.50;99.90
23114;DHT22;11726;50.122;8.832;2023-04-08T12:50:46;12.40;99.90
23114;DHT22;11726;50.122;8.832;2023-04-08T12:53:14;12.30;99.90
23114;DHT22;11726;50.122;8.832;2023-04-08T12:55:42;12.20;99.90
23114;DHT22;11726;50.122;8.832;2023-04-08T12:58:11;12.20;99.90
23114;DHT22;11726;50.122;8.832;2023-04-08T13:00:41;12.30;99.90
23114;DHT22;11726;50.122;8.832;2023-04-08T13:03:12;12.20;99.90
23114;DHT22;11726;50.122;8.832;2023-04-08T13:05:41;12.40;99.90
23114;DHT22;11726;50.122;8.832;2023-04-08T13:08:12;12.40;99.90
23114;DHT22;11726;50.122;8.832;2023-04-08T13:10:41;12.10;99.90
23114;DHT22;11726;50.122;8.832;2023-04-08T13:13:08;12.10;99.90
23114;DHT22;11726;50.122;8.832;2023-04-08T13:15:34;12.20;99.90
23114;DHT22;11726;50.122;8.832;2023-04-08T13:18:03;12.20;99.90
23114;DHT22;11726;50.122;8.832;2023-04-08T13:20:31;12.50;99.90
23114;DHT22;11726;50.122;8.832;2023-04-08T13:22:58;12.40;99.90
23114;DHT22;11726;50.122;8.832;2023-04-08T13:25:26;12.00;99.90
23114;DHT22;11726;50.122;8.832;2023-04-08T13:27:58;12.00;99.90
23114;DHT22;11726;50.122;8.832;2023-04-08T13:30:24;12.00;99.90
23114;DHT22;11726;50.122;8.832;2023-04-08T13:32:51;12.00;99.90
23114;DHT22;11726;50.122;8.832;2023-04-08T13:35:18;12.00;99.90
23114;DHT22;11726;50.122;8.832;2023-04-08T13:37:45;12.20;99.90
23114;DHT22;11726;50.122;8.832;2023-04-08T13:40:12;12.30;99.90
23114;DHT22;11726;50.122;8.832;2023-04-08T13:42:40;12.30;99.90
23114;DHT22;11726;50.122;8.832;2023-04-08T13:45:07;12.10;99.90
23114;DHT22;11726;50.122;8.832;2023-04-08T13:47:34;12.10;99.90
23114;DHT22;11726;50.122;8.832;2023-04-08T13:50:03;12.00;99.90
23114;DHT22;11726;50.122;8.832;2023-04-08T13:52:30;12.00;99.90
23114;DHT22;11726;50.122;8.832;2023-04-08T13:55:00;12.20;99.90
23114;DHT22;11726;50.122;8.832;2023-04-08T13:57:26;12.30;99.90
23114;DHT22;11726;50.122;8.832;2023-04-08T13:59:55;12.30;99.90
23114;DHT22;11726;50.122;8.832;2023-04-08T14:02:22;12.00;99.90
23114;DHT22;11726;50.122;8.832;2023-04-08T14:04:51;12.10;99.90
23114;DHT22;11726;50.122;8.832;2023-04-08T14:07:19;12.10;99.90
23114;DHT22;11726;50.122;8.832;2023-04-08T14:09:46;12.00;99.90
23114;DHT22;11726;50.122;8.832;2023-04-08T14:12:13;12.10;99.90
23114;DHT22;11726;50.122;8.832;2023-04-08T14:14:40;12.10;99.90
23114;DHT22;11726;50.122;8.832;2023-04-08T14:17:07;12.20;99.90
23114;DHT22;11726;50.122;8.832;2023-04-08T14:19:34;12.20;99.90
23114;DHT22;11726;50.122;8.832;2023-04-08T14:22:05;12.30;99.90
23114;DHT22;11726;50.122;8.832;2023-04-08T14:24:35;12.10;99.90
23114;DHT22;11726;50.122;8.832;2023-04-08T14:27:06;12.20;99.90
23114;DHT22;11726;50.122;8.832;2023-04-08T14:29:32;12.30;99.90
23114;DHT22;11726;50.122;8.832;2023-04-08T14:32:01;12.30;99.90
23114;DHT22;11726;50.122;8.832;2023-04-08T14:34:28;12.30;99.90
23114;DHT22;11726;50.122;8.832;2023-04-08T14:36:55;12.40;99.90
23114;DHT22;11726;50.122;8.832;2023-04-08T14:39:22;12.30;99.90
23114;DHT22;11726;50.122;8.832;2023-04-08T14:41:50;12.40;99.90
23114;DHT22;11726;50.122;8.832;2023-04-08T14:44:20;12.40;99.90
23114;DHT22;11726;50.122;8.832;2023-04-08T14:46:50;12.50;99.90
23114;DHT22;11726;50.122;8.832;2023-04-08T14:49:20;12.60;99.90
23114;DHT22;11726;50.122;8.832;2023-04-08T14:51:47;12.70;99.90
23114;DHT22;11726;50.122;8.832;2023-04-08T14:54:13;12.90;99.90
23114;DHT22;11726;50.122;8.832;2023-04-08T14:56:47;13.00;99.90
23114;DHT22;11726;50.122;8.832;2023-04-08T14:59:13;13.10;99.90
23114;DHT22;11726;50.122;8.832;2023-04-08T15:01:40;13.40;99.90
23114;DHT22;11726;50.122;8.832;2023-04-08T15:04:07;13.60;99.90
23114;DHT22;11726;50.122;8.832;2023-04-08T15:06:34;14.10;99.90
23114;DHT22;11726;50.122;8.832;2023-04-08T15:09:01;14.20;99.90
23114;DHT22;11726;50.122;8.832;2023-04-08T15:11:34;13.70;99.90
23114;DHT22;11726;50.122;8.832;2023-04-08T15:14:01;13.20;99.90
23114;DHT22;11726;50.122;8.832;2023-04-08T15:16:27;13.10;99.90
23114;DHT22;11726;50.122;8.832;2023-04-08T15:18:57;13.10;99.90
23114;DHT22;11726;50.122;8.832;2023-04-08T15:21:28;13.00;99.90
23114;DHT22;11726;50.122;8.832;2023-04-08T15:23:54;13.10;99.90
23114;DHT22;11726;50.122;8.832;2023-04-08T15:26:24;13.20;99.90
23114;DHT22;11726;50.122;8.832;2023-04-08T15:28:55;13.20;99.90
23114;DHT22;11726;50.122;8.832;2023-04-08T15:31:27;13.10;99.90
23114;DHT22;11726;50.122;8.832;2023-04-08T15:33:53;13.10;99.90
23114;DHT22;11726;50.122;8.832;2023-04-08T15:36:23;13.20;99.90
23114;DHT22;11726;50.122;8.832;2023-04-08T15:38:50;13.10;99.90
23114;DHT22;11726;50.122;8.832;2023-04-08T15:41:21;13.10;99.90
23114;DHT22;11726;50.122;8.832;2023-04-08T15:43:52;13.00;99.90
23114;DHT22;11726;50.122;8.832;2023-04-08T15:46:20;13.10;99.90
23114;DHT22;11726;50.122;8.832;2023-04-08T15:48:47;13.10;99.90
23114;DHT22;11726;50.122;8.832;2023-04-08T15:51:14;13.00;99.90
23114;DHT22;11726;50.122;8.832;2023-04-08T15:53:45;12.80;99.90
23114;DHT22;11726;50.122;8.832;2023-04-08T15:56:12;12.70;99.90
23114;DHT22;11726;50.122;8.832;2023-04-08T15:58:41;12.60;99.90
23114;DHT22;11726;50.122;8.832;2023-04-08T16:01:07;12.60;99.90
23114;DHT22;11726;50.122;8.832;2023-04-08T16:03:37;12.60;99.90